LRD weather

Laredo International Airport
Laredo, Texas, United States

Public forecast

Using degrees Fahrenheit for public forecast. Weather courtesy of forecast.io.

Current aviation weather report (METAR) for Laredo International Airport

Retrieved 2020/08/05 03:56 UTC (39 minutes ago):

KLRD 050356Z 12011KT 10SM CLR 31/21 A2997 RMK AO2 SLP144 T03060211 PNO

Aviation forecast (TAF) for Laredo International Airport

Retrieved 2020-08-05 00:24 UTC (4 hours ago):

TAF KLRD 042322Z 0500/0524 13012KT P6SM FEW250 FM051800 15010G17KT P6SM SKC FM052100 14010KT P6SM SKC